Time;durP1;ratioP1;P1;durP2;ratioP2;P2;SDS_P1;SDS_P2;PMS_P1;PMS_P2;Temp;Humidity;BMP_temperature;BMP_pressure;BME280_temperature;BME280_humidity;BME280_pressure;Samples;Min_cycle;Max_cycle;Signal;HPM_P1;HPM_P2
2022/05/26 00:00:11;;;;;;;16.23;3.33;;;16.60;95.40;;;;;;4984355;28;20031;-69
2022/05/26 00:02:36;;;;;;;8.30;2.65;;;16.60;95.40;;;;;;4994296;28;20034;-69
2022/05/26 00:05:03;;;;;;;10.70;3.40;;;16.60;95.40;;;;;;4995205;28;20038;-69
2022/05/26 00:07:28;;;;;;;17.35;2.38;;;16.60;95.40;;;;;;4994236;28;20061;-68
2022/05/26 00:09:54;;;;;;;13.90;3.00;;;16.60;95.40;;;;;;4994709;28;20128;-68
2022/05/26 00:12:20;;;;;;;10.02;2.83;;;16.60;95.40;;;;;;4994908;28;20109;-69
2022/05/26 00:14:45;;;;;;;8.90;1.95;;;16.60;95.50;;;;;;4993634;28;20057;-69
2022/05/26 00:17:11;;;;;;;12.48;3.53;;;16.60;95.50;;;;;;4994373;28;20034;-68
2022/05/26 00:19:37;;;;;;;6.97;1.88;;;16.60;95.50;;;;;;4994386;28;20077;-69
2022/05/26 00:22:03;;;;;;;2.90;1.38;;;16.60;95.50;;;;;;4993840;28;20058;-69
2022/05/26 00:24:29;;;;;;;8.73;1.90;;;16.60;95.50;;;;;;4994398;28;20509;-69
2022/05/26 00:26:54;;;;;;;11.18;2.53;;;16.60;95.50;;;;;;4993754;28;20054;-69
2022/05/26 00:29:20;;;;;;;5.10;1.92;;;16.50;95.50;;;;;;4993369;28;20038;-69
2022/05/26 00:31:46;;;;;;;10.32;2.90;;;16.50;95.60;;;;;;4994523;28;20121;-69
2022/05/26 00:34:12;;;;;;;7.63;2.30;;;16.50;95.60;;;;;;4993989;28;20470;-69
2022/05/26 00:36:37;;;;;;;8.30;2.67;;;16.50;95.60;;;;;;4994140;28;20494;-69
2022/05/26 00:39:15;;;;;;;9.00;3.28;;;16.50;95.60;;;;;;4994602;28;20065;-69
2022/05/26 00:41:45;;;;;;;5.80;2.55;;;16.50;95.50;;;;;;4992538;28;20121;-69
2022/05/26 00:44:11;;;;;;;2.85;2.22;;;16.50;95.50;;;;;;4993648;28;20026;-69
2022/05/26 00:46:46;;;;;;;11.00;2.55;;;16.50;95.50;;;;;;4993641;28;20034;-69
2022/05/26 00:49:39;;;;;;;4.88;1.63;;;16.50;95.60;;;;;;4988061;28;20090;-69
2022/05/26 00:52:08;;;;;;;4.63;2.55;;;16.40;95.60;;;;;;4983631;28;20042;-69
2022/05/26 00:54:34;;;;;;;9.68;1.80;;;16.40;95.50;;;;;;4984639;28;20030;-69
2022/05/26 00:57:05;;;;;;;9.52;2.65;;;16.40;95.40;;;;;;4993551;28;20027;-69
2022/05/26 00:59:53;;;;;;;8.70;2.70;;;16.50;95.50;;;;;;4976737;28;20038;-69
2022/05/26 01:02:25;;;;;;;8.32;2.83;;;16.40;95.40;;;;;;4984953;28;20497;-69
2022/05/26 01:04:55;;;;;;;9.40;2.72;;;16.40;95.40;;;;;;4994099;28;20026;-69
2022/05/26 01:07:31;;;;;;;8.65;2.22;;;16.40;95.40;;;;;;4993689;28;20022;-69
2022/05/26 01:09:59;;;;;;;7.93;2.40;;;16.40;95.40;;;;;;4992780;28;20030;-69
2022/05/26 01:12:25;;;;;;;9.93;2.63;;;16.40;95.50;;;;;;4993635;28;20475;-69
2022/05/26 01:14:55;;;;;;;6.38;2.75;;;16.40;95.40;;;;;;4993360;28;20038;-69
2022/05/26 01:17:24;;;;;;;4.95;1.98;;;16.30;95.40;;;;;;4993242;28;20034;-69
2022/05/26 01:20:11;;;;;;;8.63;3.30;;;16.30;95.50;;;;;;4993262;28;20080;-69
2022/05/26 01:23:04;;;;;;;6.93;2.75;;;16.30;95.50;;;;;;4994195;28;20037;-69
2022/05/26 01:26:10;;;;;;;12.70;2.70;;;16.30;95.50;;;;;;4982987;28;20022;-69
2022/05/26 01:29:03;;;;;;;10.88;3.25;;;16.30;95.60;;;;;;4977750;28;20034;-69
2022/05/26 01:31:47;;;;;;;5.90;1.95;;;16.30;95.60;;;;;;4992385;28;20061;-69
2022/05/26 01:34:44;;;;;;;7.60;2.97;;;16.30;95.70;;;;;;4992777;28;20486;-69
2022/05/26 01:37:47;;;;;;;5.63;2.80;;;16.30;95.80;;;;;;4991044;28;20061;-69
2022/05/26 01:40:38;;;;;;;6.38;2.60;;;16.20;95.80;;;;;;4986581;28;20037;-69
2022/05/26 01:43:17;;;;;;;6.60;2.33;;;16.20;95.90;;;;;;4993628;28;20030;-69
2022/05/26 01:46:07;;;;;;;8.20;1.88;;;16.20;96.00;;;;;;4983158;28;20478;-69
2022/05/26 01:48:42;;;;;;;7.05;2.58;;;16.20;96.10;;;;;;4993282;28;20031;-69
2022/05/26 01:51:16;;;;;;;11.05;3.05;;;16.10;96.10;;;;;;4993126;28;20030;-69
2022/05/26 01:54:03;;;;;;;8.80;1.90;;;16.10;96.10;;;;;;4990733;28;20803;-69
2022/05/26 01:57:11;;;;;;;6.43;1.52;;;16.10;96.10;;;;;;4992686;28;20129;-69
2022/05/26 01:59:41;;;;;;;8.73;2.03;;;16.10;96.10;;;;;;4992074;28;20449;-69
2022/05/26 02:02:29;;;;;;;9.95;2.00;;;16.10;96.00;;;;;;4993172;28;20034;-69
2022/05/26 02:05:01;;;;;;;3.70;1.88;;;16.10;96.00;;;;;;4982090;28;20058;-69
2022/05/26 02:07:38;;;;;;;3.55;1.40;;;16.10;95.90;;;;;;4992850;28;20039;-69
2022/05/26 02:10:09;;;;;;;3.05;1.45;;;16.10;95.90;;;;;;4992765;28;20042;-69
2022/05/26 02:12:41;;;;;;;2.08;1.55;;;16.10;95.90;;;;;;4988285;28;20037;-69
2022/05/26 02:15:13;;;;;;;5.68;1.75;;;16.10;95.80;;;;;;4992478;28;20049;-69
2022/05/26 02:17:44;;;;;;;3.40;1.90;;;16.10;95.80;;;;;;4993035;28;20540;-69
2022/05/26 02:20:33;;;;;;;8.57;1.83;;;16.10;95.70;;;;;;4992490;28;20149;-69
2022/05/26 02:23:13;;;;;;;16.00;2.97;;;16.10;95.70;;;;;;4992534;28;20069;-69
2022/05/26 02:25:39;;;;;;;8.13;2.35;;;16.10;95.60;;;;;;4992591;28;20042;-70
2022/05/26 02:28:09;;;;;;;12.90;2.70;;;16.20;95.60;;;;;;4991986;28;20470;-69
2022/05/26 02:30:41;;;;;;;4.32;1.60;;;16.20;95.60;;;;;;4993127;28;20034;-69
2022/05/26 02:33:11;;;;;;;6.45;1.00;;;16.10;95.50;;;;;;4992963;28;20101;-69
2022/05/26 02:35:39;;;;;;;6.78;1.40;;;16.20;95.40;;;;;;4991968;28;20053;-69
2022/05/26 02:38:15;;;;;;;1.30;0.80;;;16.20;95.40;;;;;;4992335;28;20355;-69
2022/05/26 02:40:42;;;;;;;4.50;1.20;;;16.20;95.30;;;;;;4992055;28;20501;-70
2022/05/26 02:43:16;;;;;;;5.88;1.83;;;16.20;95.30;;;;;;4992919;28;20397;-69
2022/05/26 02:45:59;;;;;;;9.00;2.28;;;16.20;95.20;;;;;;4992756;28;20684;-69
2022/05/26 02:48:51;;;;;;;12.45;2.33;;;16.20;95.10;;;;;;4992135;28;20030;-69
2022/05/26 02:51:31;;;;;;;12.50;1.85;;;16.30;95.10;;;;;;4992654;28;20030;-69
2022/05/26 02:54:15;;;;;;;9.13;2.22;;;16.20;95.10;;;;;;4992522;28;20035;-69
2022/05/26 02:57:25;;;;;;;13.25;2.28;;;16.20;95.00;;;;;;4991617;28;20070;-69
2022/05/26 03:00:16;;;;;;;9.90;3.17;;;16.20;95.10;;;;;;4908023;29;20036;-69
2022/05/26 03:03:04;;;;;;;9.60;2.55;;;16.20;95.10;;;;;;4985534;28;20445;-69
2022/05/26 03:05:39;;;;;;;10.57;1.92;;;16.20;95.10;;;;;;4993997;28;20034;-69
2022/05/26 03:08:08;;;;;;;14.45;2.13;;;16.20;95.20;;;;;;4984074;28;20026;-69
2022/05/26 03:10:34;;;;;;;10.07;2.05;;;16.10;95.20;;;;;;4994978;28;20061;-69
2022/05/26 03:13:00;;;;;;;1.88;1.00;;;16.10;95.10;;;;;;4996119;28;20034;-69
2022/05/26 03:15:28;;;;;;;1.40;0.95;;;16.10;95.10;;;;;;4995491;28;20046;-69
2022/05/26 03:17:59;;;;;;;0.93;0.80;;;16.10;95.00;;;;;;4995060;28;20124;-69
2022/05/26 03:20:25;;;;;;;7.68;1.75;;;16.10;95.00;;;;;;4995636;28;20130;-69
2022/05/26 03:22:51;;;;;;;7.28;1.73;;;16.10;94.90;;;;;;4995058;28;20117;-69
2022/05/26 03:25:16;;;;;;;2.80;1.55;;;16.10;94.80;;;;;;4995872;28;20038;-69
2022/05/26 03:27:42;;;;;;;7.40;1.52;;;16.10;94.80;;;;;;4982884;28;20062;-69
2022/05/26 03:30:08;;;;;;;5.63;1.95;;;16.10;94.70;;;;;;4994965;28;20409;-69
2022/05/26 03:32:34;;;;;;;6.85;2.08;;;16.10;94.70;;;;;;4995683;28;20030;-69
2022/05/26 03:40:46;;;;;;;4.35;1.23;;;16.00;94.60;;;;;;4995383;28;20026;-69
2022/05/26 03:43:12;;;;;;;;;;;16.00;94.60;;;;;;4996040;28;20027;-70
2022/05/26 03:45:38;;;;;;;0.80;0.80;;;15.90;94.60;;;;;;4994546;28;20352;-69
2022/05/26 03:48:05;;;;;;;3.63;1.25;;;15.90;94.60;;;;;;4994919;28;20050;-69
2022/05/26 03:50:31;;;;;;;13.98;1.70;;;15.90;94.60;;;;;;4995332;28;20108;-69
2022/05/26 03:52:57;;;;;;;4.18;1.35;;;15.80;94.60;;;;;;4992334;28;20443;-69
2022/05/26 03:55:24;;;;;;;0.68;0.60;;;15.80;94.70;;;;;;4995266;28;20429;-69
2022/05/26 03:57:49;;;;;;;1.23;1.08;;;15.80;94.70;;;;;;4994300;28;20470;-70
2022/05/26 04:00:18;;;;;;;2.88;1.15;;;15.80;94.70;;;;;;4995380;28;20041;-69
2022/05/26 04:02:44;;;;;;;3.40;0.98;;;15.70;94.70;;;;;;4995167;28;20043;-69
2022/05/26 04:05:11;;;;;;;2.88;0.70;;;15.80;94.70;;;;;;4994462;28;20433;-69
2022/05/26 04:07:37;;;;;;;2.50;1.30;;;15.80;94.70;;;;;;4995189;28;20033;-69
2022/05/26 04:10:05;;;;;;;9.85;2.17;;;15.80;94.60;;;;;;4989538;28;20125;-69
2022/05/26 04:12:30;;;;;;;3.50;1.20;;;15.80;94.50;;;;;;4993318;28;20032;-68
2022/05/26 04:14:56;;;;;;;1.95;0.75;;;15.80;94.50;;;;;;4993785;28;20054;-68
2022/05/26 04:17:22;;;;;;;6.38;1.08;;;15.80;94.40;;;;;;4992317;28;20134;-69
2022/05/26 04:19:47;;;;;;;1.17;1.00;;;15.80;94.40;;;;;;4992639;28;20030;-68
2022/05/26 04:22:16;;;;;;;7.25;0.93;;;15.80;94.40;;;;;;4993734;28;20037;-67
2022/05/26 04:24:43;;;;;;;3.05;1.35;;;15.80;94.40;;;;;;4993481;28;20038;-67
2022/05/26 04:27:09;;;;;;;6.40;1.10;;;15.70;94.30;;;;;;4993336;28;20092;-67
2022/05/26 04:29:35;;;;;;;8.13;1.67;;;15.80;94.30;;;;;;4994386;28;20030;-67
2022/05/26 04:32:02;;;;;;;1.00;0.90;;;15.70;94.30;;;;;;4994564;28;20030;-67
2022/05/26 04:34:28;;;;;;;2.00;0.90;;;15.70;94.30;;;;;;4992335;28;20492;-68
2022/05/26 04:36:54;;;;;;;5.30;0.93;;;15.70;94.30;;;;;;4994251;28;20371;-66
2022/05/26 04:39:19;;;;;;;3.33;0.77;;;15.80;94.30;;;;;;4994330;28;20040;-67
2022/05/26 04:41:48;;;;;;;1.38;0.47;;;15.70;94.30;;;;;;4993877;28;20088;-67
2022/05/26 04:44:17;;;;;;;6.28;1.63;;;15.70;94.30;;;;;;4992951;28;20159;-67
2022/05/26 04:46:42;;;;;;;1.88;0.85;;;15.70;94.30;;;;;;4992915;28;20046;-67
2022/05/26 04:49:09;;;;;;;1.38;1.23;;;15.70;94.30;;;;;;4992252;28;20034;-67
2022/05/26 04:51:37;;;;;;;5.50;1.10;;;15.70;94.30;;;;;;4992412;28;20093;-67
2022/05/26 04:54:05;;;;;;;17.30;2.88;;;15.70;94.40;;;;;;4992290;28;20441;-67
2022/05/26 04:56:31;;;;;;;0.70;0.70;;;15.70;94.40;;;;;;4992887;28;20050;-67
2022/05/26 04:58:57;;;;;;;2.35;0.98;;;15.70;94.40;;;;;;4992868;28;20085;-67
2022/05/26 05:01:23;;;;;;;10.02;0.85;;;15.70;94.40;;;;;;4992189;28;20057;-67
2022/05/26 05:03:48;;;;;;;3.08;1.25;;;15.70;94.50;;;;;;4993033;28;20114;-67
2022/05/26 05:06:16;;;;;;;3.28;0.85;;;15.60;94.40;;;;;;4992273;28;20455;-67
2022/05/26 05:08:42;;;;;;;3.20;1.42;;;15.60;94.50;;;;;;4992164;28;20070;-67
2022/05/26 05:11:09;;;;;;;3.22;0.50;;;15.60;94.50;;;;;;4992230;28;20049;-67
2022/05/26 05:13:35;;;;;;;3.53;1.02;;;15.60;94.50;;;;;;4992106;28;20467;-67
2022/05/26 05:16:27;;;;;;;6.22;1.65;;;15.60;94.50;;;;;;4991848;28;20371;-67
2022/05/26 05:18:53;;;;;;;1.85;1.15;;;15.60;94.60;;;;;;4991613;28;20397;-67
2022/05/26 05:21:27;;;;;;;1.65;0.57;;;15.60;94.60;;;;;;4991820;28;20096;-67
2022/05/26 05:24:02;;;;;;;6.63;1.88;;;15.60;94.60;;;;;;4991768;28;20038;-67
2022/05/26 05:26:34;;;;;;;0.85;0.73;;;15.60;94.60;;;;;;4992276;28;20019;-67
2022/05/26 05:29:08;;;;;;;3.85;0.93;;;15.60;94.70;;;;;;4991765;28;20030;-67
2022/05/26 05:31:41;;;;;;;3.95;1.23;;;15.60;94.70;;;;;;4991120;28;20077;-68
2022/05/26 05:34:18;;;;;;;1.20;0.70;;;15.60;94.60;;;;;;4992455;28;20034;-68
2022/05/26 05:36:44;;;;;;;2.78;0.95;;;15.60;94.60;;;;;;4991428;28;20046;-68
2022/05/26 05:39:10;;;;;;;4.22;0.65;;;15.60;94.50;;;;;;4989443;28;20034;-68
2022/05/26 05:41:36;;;;;;;8.00;1.40;;;15.70;94.60;;;;;;4992296;28;20104;-68
2022/05/26 05:44:03;;;;;;;1.48;0.60;;;15.70;94.50;;;;;;4992214;28;20061;-67
2022/05/26 05:46:53;;;;;;;1.70;0.95;;;15.60;94.50;;;;;;4992945;28;20073;-67
2022/05/26 05:49:22;;;;;;;1.75;0.60;;;15.60;94.50;;;;;;4993306;28;20042;-67
2022/05/26 05:51:49;;;;;;;1.73;0.90;;;15.60;94.50;;;;;;4979997;28;20101;-67
2022/05/26 05:54:14;;;;;;;6.53;1.30;;;15.60;94.50;;;;;;4992819;28;20030;-67
2022/05/26 05:56:40;;;;;;;2.38;1.50;;;15.60;94.50;;;;;;4992990;28;20350;-67
2022/05/26 05:59:05;;;;;;;3.63;1.42;;;15.70;94.60;;;;;;4992361;28;20041;-67
2022/05/26 06:01:31;;;;;;;1.23;0.98;;;15.70;94.60;;;;;;4993159;28;20031;-67
2022/05/26 06:03:57;;;;;;;2.60;1.52;;;15.70;94.50;;;;;;4992198;28;20034;-67
2022/05/26 06:06:23;;;;;;;1.40;0.75;;;15.70;94.60;;;;;;4991374;28;20105;-67
2022/05/26 06:08:48;;;;;;;3.83;0.95;;;15.70;94.50;;;;;;4992164;28;20144;-67
2022/05/26 06:11:14;;;;;;;3.13;1.35;;;15.70;94.50;;;;;;4992520;28;20063;-67
2022/05/26 06:13:41;;;;;;;2.70;1.00;;;15.70;94.50;;;;;;4991059;28;20084;-68
2022/05/26 06:16:06;;;;;;;0.65;0.55;;;15.70;94.50;;;;;;4991259;28;20457;-67
2022/05/26 06:18:34;;;;;;;2.83;1.27;;;15.80;94.60;;;;;;4991325;28;20077;-70
2022/05/26 06:21:05;;;;;;;9.65;0.93;;;15.80;94.60;;;;;;4992587;28;20367;-70
2022/05/26 06:23:32;;;;;;;1.73;1.55;;;15.80;94.60;;;;;;4993073;28;20030;-70
2022/05/26 06:25:57;;;;;;;0.60;0.60;;;15.80;94.50;;;;;;4992224;28;20065;-70
2022/05/26 06:31:08;;;;;;;5.13;1.55;;;15.90;94.40;;;;;;4982170;28;20027;-69
2022/05/26 06:39:04;;;;;;;4.85;0.57;;;15.90;94.40;;;;;;4991889;28;20504;-70
2022/05/26 06:44:14;;;;;;;0.43;0.38;;;15.90;94.40;;;;;;4994334;28;20041;-70
2022/05/26 06:46:43;;;;;;;1.95;0.70;;;15.90;94.50;;;;;;4994562;28;20030;-71
2022/05/26 06:49:09;;;;;;;1.65;0.85;;;15.90;94.80;;;;;;4995275;28;20030;-72
2022/05/26 06:51:39;;;;;;;2.08;0.77;;;15.90;94.70;;;;;;4994931;28;20088;-68
2022/05/26 06:54:12;;;;;;;2.17;0.63;;;15.90;94.70;;;;;;4993797;28;20109;-68
2022/05/26 06:56:38;;;;;;;3.13;0.98;;;15.90;94.60;;;;;;4992488;28;20050;-68
2022/05/26 06:59:04;;;;;;;4.50;0.93;;;15.90;94.70;;;;;;4994958;28;20030;-68
2022/05/26 07:01:29;;;;;;;0.68;0.65;;;16.00;94.80;;;;;;4994285;28;20083;-67
2022/05/26 07:03:55;;;;;;;2.40;0.70;;;16.00;94.70;;;;;;4991143;28;20414;-68
2022/05/26 07:06:25;;;;;;;3.20;0.85;;;16.10;94.60;;;;;;4993599;28;20022;-68
2022/05/26 07:08:51;;;;;;;0.50;0.50;;;16.10;94.50;;;;;;4992418;28;20060;-68
2022/05/26 07:11:17;;;;;;;1.55;0.55;;;16.20;94.40;;;;;;4990659;28;20141;-68
2022/05/26 07:13:43;;;;;;;2.45;0.82;;;16.20;94.30;;;;;;4993471;28;20045;-70
2022/05/26 07:16:10;;;;;;;3.42;1.42;;;16.20;94.20;;;;;;4993745;28;20569;-69
2022/05/26 07:18:36;;;;;;;2.95;1.25;;;16.30;94.10;;;;;;4994613;28;20027;-69
2022/05/26 07:21:05;;;;;;;1.38;1.10;;;16.30;93.90;;;;;;4993598;28;20041;-68
2022/05/26 07:23:31;;;;;;;2.95;0.85;;;16.30;93.90;;;;;;4991722;28;20027;-68
2022/05/26 07:25:56;;;;;;;2.40;0.80;;;16.30;93.90;;;;;;4993507;28;20038;-68
2022/05/26 07:28:25;;;;;;;3.78;1.25;;;16.40;93.90;;;;;;4993459;28;20041;-76
2022/05/26 07:30:53;;;;;;;1.33;0.85;;;16.40;93.80;;;;;;4988749;28;20026;-70
2022/05/26 07:33:19;;;;;;;1.98;1.33;;;16.40;93.80;;;;;;4992128;28;20026;-69
2022/05/26 07:35:46;;;;;;;3.42;0.70;;;16.40;93.70;;;;;;4993577;28;20554;-68
2022/05/26 07:43:57;;;;;;;2.13;1.25;;;16.50;93.70;;;;;;4990572;28;20046;-70
2022/05/26 07:46:26;;;;;;;0.63;0.63;;;16.50;93.80;;;;;;4991649;28;20018;-70
2022/05/26 07:48:53;;;;;;;1.08;0.93;;;16.60;93.80;;;;;;4991273;28;20065;-68
2022/05/26 07:51:20;;;;;;;0.85;0.85;;;16.50;93.80;;;;;;4988546;28;20034;-68
2022/05/26 07:53:46;;;;;;;5.57;0.93;;;16.60;93.80;;;;;;4988135;28;20034;-69
2022/05/26 07:56:12;;;;;;;5.85;0.77;;;16.60;93.80;;;;;;4987627;28;20363;-69
2022/05/26 07:58:38;;;;;;;0.55;0.55;;;16.60;93.80;;;;;;4988801;28;20041;-68
2022/05/26 08:01:04;;;;;;;4.22;0.98;;;16.60;93.90;;;;;;4987608;28;20042;-69
2022/05/26 08:03:31;;;;;;;4.75;1.08;;;16.70;93.90;;;;;;4988811;28;20035;-68
2022/05/26 08:05:56;;;;;;;3.00;1.60;;;16.60;93.80;;;;;;4989889;28;20038;-68
2022/05/26 08:08:22;;;;;;;6.50;1.77;;;16.60;93.90;;;;;;4991035;28;20382;-68
2022/05/26 08:10:48;;;;;;;3.72;1.20;;;16.60;93.80;;;;;;4989683;28;20057;-69
2022/05/26 08:13:14;;;;;;;1.67;0.82;;;16.70;94.00;;;;;;4988035;28;20030;-68
2022/05/26 08:15:39;;;;;;;6.88;1.38;;;16.70;93.90;;;;;;4987950;28;20041;-69
2022/05/26 08:18:05;;;;;;;3.05;1.10;;;16.60;93.70;;;;;;4987898;28;20565;-69
2022/05/26 08:20:31;;;;;;;1.48;0.90;;;16.60;93.80;;;;;;4987891;28;20413;-68
2022/05/26 08:22:57;;;;;;;3.55;1.38;;;16.70;93.90;;;;;;4987886;28;20030;-69
2022/05/26 08:25:23;;;;;;;3.97;0.73;;;16.70;93.50;;;;;;4987656;28;20822;-69
2022/05/26 08:27:49;;;;;;;2.35;0.60;;;16.70;93.30;;;;;;4988429;28;20440;-68
2022/05/26 08:30:15;;;;;;;0.75;0.75;;;16.70;93.30;;;;;;4988318;28;20057;-68
2022/05/26 08:32:41;;;;;;;4.63;1.42;;;16.60;93.20;;;;;;4986406;28;20042;-68
2022/05/26 08:35:08;;;;;;;0.68;0.68;;;16.70;93.20;;;;;;4988833;28;20084;-68
2022/05/26 08:37:35;;;;;;;6.25;1.52;;;16.80;93.20;;;;;;4989109;28;20069;-68
2022/05/26 08:40:00;;;;;;;2.97;0.90;;;16.80;93.20;;;;;;4988301;28;20045;-69
2022/05/26 08:42:29;;;;;;;2.92;0.88;;;16.80;92.90;;;;;;4990216;28;20394;-68
2022/05/26 08:45:01;;;;;;;1.27;0.90;;;16.80;92.90;;;;;;4989856;28;20038;-68
2022/05/26 08:47:35;;;;;;;2.30;1.08;;;16.80;92.80;;;;;;4985907;28;20061;-68
2022/05/26 08:50:04;;;;;;;1.70;0.80;;;16.80;92.60;;;;;;4990264;28;20030;-68
2022/05/26 08:52:33;;;;;;;3.10;1.45;;;16.80;92.80;;;;;;4991139;28;20022;-68
2022/05/26 08:55:08;;;;;;;2.40;0.85;;;16.90;92.80;;;;;;4988420;28;20039;-68
2022/05/26 08:57:44;;;;;;;4.38;0.80;;;16.90;92.90;;;;;;4988770;28;20058;-68
2022/05/26 09:00:18;;;;;;;3.03;0.95;;;16.90;93.10;;;;;;4987296;28;20046;-68
2022/05/26 09:02:45;;;;;;;3.90;1.50;;;17.00;92.90;;;;;;4987615;28;20026;-72
2022/05/26 09:05:17;;;;;;;3.22;1.10;;;17.10;92.90;;;;;;4990166;28;20045;-68
2022/05/26 09:14:03;;;;;;;3.70;1.40;;;17.20;92.70;;;;;;4986011;28;20441;-68
2022/05/26 09:16:33;;;;;;;1.63;0.70;;;17.20;92.50;;;;;;4986642;28;20061;-69
2022/05/26 09:19:08;;;;;;;4.60;0.70;;;17.30;92.40;;;;;;4987282;28;20035;-68
2022/05/26 09:21:34;;;;;;;4.85;0.70;;;17.30;92.40;;;;;;4986054;28;20042;-72
2022/05/26 09:24:15;;;;;;;0.65;0.40;;;17.40;92.10;;;;;;4986094;28;20065;-68
2022/05/26 09:26:47;;;;;;;5.38;1.30;;;17.50;92.00;;;;;;4985832;28;20038;-68
2022/05/26 09:29:15;;;;;;;4.45;1.55;;;17.40;91.90;;;;;;4985854;28;20018;-68
2022/05/26 09:31:49;;;;;;;0.75;0.73;;;17.50;91.90;;;;;;4987107;28;20488;-68
2022/05/26 09:34:19;;;;;;;1.95;1.00;;;17.50;91.50;;;;;;4988070;28;20495;-68
2022/05/26 09:36:48;;;;;;;3.03;0.95;;;17.50;91.10;;;;;;4987557;28;20128;-70
2022/05/26 09:39:18;;;;;;;0.68;0.50;;;17.50;90.80;;;;;;4985202;28;20041;-70
2022/05/26 09:41:46;;;;;;;3.33;0.80;;;17.40;90.60;;;;;;4987109;28;20026;-71
2022/05/26 09:44:30;;;;;;;3.03;1.17;;;17.50;90.60;;;;;;4987866;28;20490;-69
2022/05/26 09:46:59;;;;;;;2.75;1.02;;;17.50;90.40;;;;;;4988202;28;20026;-69
2022/05/26 09:49:32;;;;;;;4.03;0.77;;;17.50;90.40;;;;;;4979682;28;20414;-69
2022/05/26 09:52:18;;;;;;;1.13;0.63;;;17.60;90.30;;;;;;4988247;28;20482;-69
2022/05/26 09:54:46;;;;;;;3.50;0.90;;;17.60;90.30;;;;;;4988128;28;20053;-69
2022/05/26 09:57:19;;;;;;;4.22;0.90;;;17.60;90.30;;;;;;4988089;28;20030;-70
2022/05/26 09:59:45;;;;;;;2.72;0.90;;;17.60;90.00;;;;;;4987653;28;20027;-69
2022/05/26 10:02:25;;;;;;;2.88;1.10;;;17.70;90.10;;;;;;4986768;28;20037;-70
2022/05/26 10:05:11;;;;;;;6.80;0.93;;;17.80;90.10;;;;;;4987050;28;20030;-69
2022/05/26 10:07:57;;;;;;;0.80;0.77;;;17.90;90.00;;;;;;4988241;28;20053;-69
2022/05/26 10:10:34;;;;;;;;;;;17.90;90.10;;;;;;4986337;28;20062;-70
2022/05/26 10:13:30;;;;;;;6.95;0.98;;;17.90;90.00;;;;;;4986472;28;20091;-69
2022/05/26 10:16:38;;;;;;;0.90;0.50;;;17.90;89.70;;;;;;4989297;28;20064;-69
2022/05/26 10:19:22;;;;;;;1.00;0.70;;;18.00;90.00;;;;;;4979636;28;20042;-69
2022/05/26 10:21:59;;;;;;;2.97;0.80;;;18.00;90.00;;;;;;4991271;28;20034;-69
2022/05/26 10:24:36;;;;;;;3.10;0.95;;;18.00;88.90;;;;;;4996739;28;20034;-69
2022/05/26 10:27:21;;;;;;;2.30;1.13;;;18.00;89.60;;;;;;4993634;28;20026;-69
2022/05/26 10:29:46;;;;;;;2.40;0.65;;;18.00;88.40;;;;;;4995824;28;20077;-69
2022/05/26 10:32:22;;;;;;;2.45;1.00;;;18.00;88.20;;;;;;4996074;28;20030;-68
2022/05/26 10:35:09;;;;;;;3.60;0.80;;;18.10;88.50;;;;;;4994349;28;20490;-68
2022/05/26 10:38:11;;;;;;;1.27;1.00;;;18.10;88.60;;;;;;4984065;28;20026;-69
2022/05/26 10:40:42;;;;;;;2.28;0.90;;;18.10;88.80;;;;;;4995072;28;20084;-70
2022/05/26 10:43:18;;;;;;;2.50;0.90;;;18.20;89.10;;;;;;4995101;28;20038;-69
2022/05/26 10:45:49;;;;;;;0.57;0.57;;;18.30;89.40;;;;;;4991396;28;20062;-71
2022/05/26 10:48:43;;;;;;;2.55;1.25;;;18.30;89.20;;;;;;4993288;28;20418;-70
2022/05/26 10:51:16;;;;;;;0.63;0.63;;;18.40;88.50;;;;;;4994064;28;20064;-69
2022/05/26 10:53:53;;;;;;;3.47;1.33;;;18.40;87.60;;;;;;4991731;28;20030;-69
2022/05/26 10:56:22;;;;;;;1.73;0.90;;;18.40;88.20;;;;;;4990625;28;20312;-69
2022/05/26 10:58:52;;;;;;;0.85;0.57;;;18.50;88.20;;;;;;4991241;28;20479;-70
2022/05/26 11:01:35;;;;;;;3.83;1.30;;;18.50;88.20;;;;;;4990200;28;20034;-69
2022/05/26 11:04:25;;;;;;;0.50;0.50;;;18.60;88.40;;;;;;4991170;28;20025;-66
2022/05/26 11:06:54;;;;;;;5.47;0.80;;;18.60;87.90;;;;;;4989697;28;20415;-66
2022/05/26 11:09:32;;;;;;;2.65;0.82;;;18.70;87.90;;;;;;4989106;28;20053;-66
2022/05/26 11:12:00;;;;;;;0.60;0.60;;;18.70;87.30;;;;;;4989636;28;20086;-67
2022/05/26 11:17:49;;;;;;;1.85;0.93;;;18.70;87.10;;;;;;4987860;28;20046;-67
2022/05/26 11:20:28;;;;;;;2.13;0.98;;;18.80;88.30;;;;;;4988484;28;20560;-67
2022/05/26 11:23:02;;;;;;;2.80;0.82;;;18.90;88.40;;;;;;4987635;28;20054;-67
2022/05/26 11:25:34;;;;;;;3.00;1.38;;;19.00;88.10;;;;;;4989783;28;20114;-67
2022/05/26 11:28:05;;;;;;;0.85;0.52;;;19.00;87.40;;;;;;4991381;28;20049;-67
2022/05/26 11:36:49;;;;;;;3.60;1.67;;;19.10;87.20;;;;;;4989876;28;20046;-68
2022/05/26 11:39:22;;;;;;;2.85;1.17;;;19.10;87.40;;;;;;4990474;28;20041;-68
2022/05/26 11:41:56;;;;;;;;;;;19.10;87.50;;;;;;4991290;28;20034;-68
2022/05/26 11:44:44;;;;;;;5.78;1.00;;;19.20;87.40;;;;;;4989957;28;20324;-69
2022/05/26 11:47:34;;;;;;;1.90;1.10;;;19.20;86.80;;;;;;4989856;28;20398;-69
2022/05/26 11:50:04;;;;;;;2.05;0.88;;;19.20;86.70;;;;;;4989238;28;20030;-68
2022/05/26 11:52:35;;;;;;;0.82;0.80;;;19.10;86.60;;;;;;4990860;28;20030;-68
2022/05/26 11:55:07;;;;;;;6.70;1.05;;;19.10;86.50;;;;;;4990944;28;20022;-67
2022/05/26 11:57:43;;;;;;;0.55;0.55;;;19.20;86.60;;;;;;4988498;28;20034;-67
2022/05/26 12:00:15;;;;;;;1.05;0.95;;;19.20;87.20;;;;;;4989282;28;20065;-68
2022/05/26 12:02:46;;;;;;;1.65;0.73;;;19.20;86.10;;;;;;4989057;28;20057;-67
2022/05/26 12:05:30;;;;;;;3.97;1.10;;;19.20;86.30;;;;;;4992649;28;20388;-68
2022/05/26 12:07:56;;;;;;;;;;;19.20;86.60;;;;;;4994248;28;20034;-67
2022/05/26 12:10:25;;;;;;;1.95;1.08;;;19.20;86.30;;;;;;4992558;28;19914;-69
2022/05/26 12:13:19;;;;;;;1.70;1.02;;;19.20;86.00;;;;;;4992711;28;20038;-68
2022/05/26 12:16:06;;;;;;;2.75;1.20;;;19.20;85.60;;;;;;4992771;28;20093;-70
2022/05/26 12:18:49;;;;;;;11.65;1.25;;;19.20;85.00;;;;;;4989690;28;20431;-69
2022/05/26 12:21:46;;;;;;;7.88;1.17;;;19.20;85.20;;;;;;4991925;28;20049;-69
2022/05/26 12:24:33;;;;;;;7.18;1.25;;;19.20;85.80;;;;;;4992160;28;20038;-70
2022/05/26 12:27:01;;;;;;;4.20;1.00;;;19.20;85.60;;;;;;4991718;28;20505;-70
2022/05/26 12:29:48;;;;;;;1.90;1.00;;;19.20;86.30;;;;;;4992009;28;20030;-66
2022/05/26 12:32:23;;;;;;;2.30;1.20;;;19.20;85.60;;;;;;4992703;28;20053;-66
2022/05/26 12:35:24;;;;;;;1.27;0.88;;;19.30;85.10;;;;;;4990313;28;20030;-66
2022/05/26 12:37:52;;;;;;;1.30;0.95;;;19.30;84.80;;;;;;4992086;28;20049;-66
2022/05/26 12:40:44;;;;;;;4.85;1.08;;;19.20;85.00;;;;;;4992140;28;20030;-66
2022/05/26 12:43:32;;;;;;;1.88;1.00;;;19.30;85.40;;;;;;4993168;28;20034;-66
2022/05/26 12:46:19;;;;;;;2.75;1.10;;;19.30;85.10;;;;;;4990804;28;20030;-66
2022/05/26 12:49:10;;;;;;;1.75;0.90;;;19.40;84.90;;;;;;4982903;28;20096;-67
2022/05/26 12:51:39;;;;;;;1.00;0.88;;;19.30;85.00;;;;;;4991266;28;20102;-66
2022/05/26 12:54:09;;;;;;;1.25;0.65;;;19.30;84.90;;;;;;4990879;28;20490;-68
2022/05/26 12:56:59;;;;;;;2.60;0.75;;;19.30;85.30;;;;;;4989437;28;20154;-68
2022/05/26 12:59:31;;;;;;;1.55;0.60;;;19.40;85.40;;;;;;4987766;28;20073;-68
2022/05/26 13:01:56;;;;;;;4.78;1.42;;;19.40;85.30;;;;;;4979249;28;20081;-67
2022/05/26 13:04:32;;;;;;;1.95;0.90;;;19.50;85.60;;;;;;4991415;28;20030;-68
2022/05/26 13:07:03;;;;;;;4.97;1.05;;;19.50;85.50;;;;;;4987537;28;20068;-67
2022/05/26 13:09:35;;;;;;;3.92;0.88;;;19.60;84.90;;;;;;4989202;28;20417;-68
2022/05/26 13:12:04;;;;;;;1.02;0.80;;;19.50;84.60;;;;;;4989814;28;20042;-68
2022/05/26 13:14:33;;;;;;;1.85;1.05;;;19.50;83.60;;;;;;4987160;28;20121;-68
2022/05/26 13:17:03;;;;;;;3.10;1.40;;;19.50;83.50;;;;;;4988482;28;20034;-68
2022/05/26 13:19:30;;;;;;;3.13;0.93;;;19.50;83.70;;;;;;4987500;28;20498;-69
2022/05/26 13:21:57;;;;;;;1.88;0.82;;;19.50;83.10;;;;;;4987128;28;20164;-69
2022/05/26 13:24:30;;;;;;;3.92;1.15;;;19.50;82.50;;;;;;4987612;28;20470;-69
2022/05/26 13:27:02;;;;;;;4.35;1.10;;;19.50;82.30;;;;;;4988621;28;20088;-69
2022/05/26 13:29:31;;;;;;;1.77;0.87;;;19.40;81.30;;;;;;4989858;28;20091;-69
2022/05/26 13:34:51;;;;;;;1.88;1.13;;;19.40;82.30;;;;;;4988092;28;20046;-69
2022/05/26 13:37:28;;;;;;;4.13;1.00;;;19.40;82.60;;;;;;4990751;28;20042;-68
2022/05/26 13:40:13;;;;;;;7.03;1.20;;;19.40;82.30;;;;;;4987733;28;20033;-70
2022/05/26 13:42:44;;;;;;;3.20;1.15;;;19.50;82.80;;;;;;4985315;28;20041;-69
2022/05/26 13:45:21;;;;;;;0.93;0.60;;;19.50;81.90;;;;;;4990112;28;20053;-71
2022/05/26 13:47:48;;;;;;;3.65;0.82;;;19.50;81.80;;;;;;4992018;28;20026;-67
2022/05/26 13:50:13;;;;;;;1.48;0.70;;;19.50;82.20;;;;;;4990297;28;20022;-68
2022/05/26 13:52:41;;;;;;;6.70;1.30;;;19.50;82.10;;;;;;4990470;28;20049;-68
2022/05/26 13:55:20;;;;;;;1.42;1.05;;;19.50;82.10;;;;;;4988935;28;20379;-68